Latest Weather Observations for Geraldton Airport

IDW60801

Issued at 3:35 pm WST Monday 20 October 2014 (issued every 30 minutes, with the page automatically refreshed every 10 minutes)

About weather observations | Map of weather stations | Latest weather observations for WA | Other Formats
Station Details ID: 008315 Name: GERALDTON AIRPORT Lat: -28.80 Lon: 114.70 Height: 29.7 m
Data from the previous 72 hours. | See also: Recent months at Geraldton Airport
Date/Time
WST
Temp
°C
App
Temp
°C
Dew
Point
Rel
Hum
%
Delta-T
°C
Wind Press
QNH
hPa
Press
MSL
hPa
Rain
since 9 am
mm
Dir
 
Spd
km/h
Gust
km/h
Spd
kts
Gust
kts
20/03:30pm 22.7 18.2 8.4 40 7.6 S 22 32 12 17 1018.1 - 0.0
20/03:00pm 22.3 16.9 8.0 40 7.5 SSW 26 35 14 19 1018.0 1018.0 0.0
20/02:30pm 23.0 18.0 8.0 38 7.9 SSW 24 35 13 19 1018.0 - 0.0
20/02:00pm 22.6 17.5 7.7 38 7.8 S 24 32 13 17 1018.1 - 0.0
20/01:30pm 22.8 18.0 8.8 40 7.5 SSW 24 33 13 18 1018.2 - 0.0
20/01:00pm 23.3 18.0 8.5 38 7.9 SSW 26 37 14 20 1018.4 - 0.0
20/12:30pm 23.4 18.5 8.6 38 7.9 SW 24 32 13 17 1018.4 - 0.0
20/12:00pm 22.8 18.6 8.2 39 7.7 SSW 20 33 11 18 1018.7 1018.7 0.0
20/11:30am 21.8 17.6 8.1 41 7.2 S 20 33 11 18 1018.8 - 0.0
20/11:00am 23.6 21.4 7.8 36 8.3 NE 9 20 5 11 1018.8 - 0.0
20/10:30am 22.2 18.1 7.9 39 7.5 S 19 28 10 15 1018.9 - 0.0
20/10:00am 22.4 18.2 8.4 40 7.4 S 20 26 11 14 1019.1 - 0.0
20/09:30am 21.2 16.6 8.2 43 6.8 SSE 22 26 12 14 1019.3 - 0.0
20/09:00am 20.3 16.7 8.4 46 6.2 SE 17 24 9 13 1019.3 1019.3 0.0
20/08:30am 19.5 15.7 9.1 51 5.5 SE 19 30 10 16 1019.3 - 0.0
20/08:00am 18.8 15.7 10.2 57 4.6 ESE 17 22 9 12 1018.9 - 0.0
20/07:30am 17.9 14.5 10.6 62 3.9 E 19 26 10 14 1018.7 - 0.0
20/07:00am 16.7 16.1 12.3 75 2.4 ENE 7 9 4 5 1018.4 - 0.0
20/06:30am 15.1 14.5 12.2 83 1.6 NNE 7 11 4 6 1018.0 - 0.0
20/06:00am 13.8 12.0 12.0 89 1.0 NE 13 15 7 8 1017.5 1017.4 0.0
20/05:30am 13.8 11.9 11.9 88 1.0 NNE 13 17 7 9 1017.2 - 0.0
20/05:00am 12.7 11.0 11.2 91 0.8 NNE 11 17 6 9 1016.7 - 0.0
20/04:30am 13.7 12.2 11.8 88 1.0 NE 11 13 6 7 1016.3 - 0.0
20/04:00am 13.7 12.1 11.6 87 1.1 NNE 11 13 6 7 1016.2 - 0.0
20/03:30am 14.5 13.9 12.3 87 1.2 NNE 7 7 4 4 1015.8 - 0.0
20/03:00am 13.8 13.8 12.3 91 0.8 E 4 7 2 4 1015.7 1015.6 0.0
20/02:30am 12.7 11.4 11.2 91 0.8 ENE 9 13 5 7 1015.7 - 0.0
20/02:00am 11.7 10.7 10.4 92 0.7 NE 6 7 3 4 1015.5 - 0.0
20/01:30am 12.6 12.6 11.0 90 0.8 ENE 2 7 1 4 1015.6 - 0.0
20/01:00am 12.2 12.4 10.6 90 0.8 CALM 0 6 0 3 1015.8 - 0.0
20/12:30am 13.2 13.6 11.3 88 1.0 CALM 0 0 0 0 1015.8 - 0.0
20/12:00am 13.7 13.2 11.9 89 1.0 N 6 7 3 4 1015.8 1015.7 0.0
 
Date/Time
WST
Temp
°C
App
Temp
°C
Dew
Point
Rel
Hum
%
Delta-T
°C
Wind Press
QNH
hPa
Press
MSL
hPa
Rain
since 9 am
mm
Dir
 
Spd
km/h
Gust
km/h
Spd
kts
Gust
kts
19/11:30pm 15.1 14.8 12.6 85 1.4 ESE 6 7 3 4 1015.8 - 0.0
19/11:00pm 15.7 15.2 12.8 83 1.6 SE 7 7 4 4 1016.1 - 0.0
19/10:30pm 16.5 15.7 12.9 79 2.0 S 9 13 5 7 1016.3 - 0.0
19/10:00pm 16.0 15.2 12.8 81 1.8 S 9 11 5 6 1016.3 - 0.0
19/09:30pm 16.9 16.2 13.2 79 2.1 SSW 9 13 5 7 1016.7 - 0.0
19/09:00pm 16.0 14.8 12.7 81 1.8 SSW 11 15 6 8 1016.4 1016.3 0.0
19/08:30pm 16.4 15.2 12.7 79 2.0 S 11 11 6 6 1016.0 - 0.0
19/08:00pm 16.8 15.6 12.7 77 2.3 S 11 13 6 7 1015.8 - 0.0
19/07:30pm 17.0 15.4 12.7 76 2.4 SSW 13 15 7 8 1015.5 - 0.0
19/07:00pm 17.6 16.0 12.8 73 2.7 S 13 19 7 10 1015.1 - 0.0
19/06:30pm 18.6 16.1 12.4 67 3.5 SSW 17 20 9 11 1015.0 - 0.0
19/06:00pm 19.4 15.9 12.3 63 4.0 SSW 22 28 12 15 1014.4 1014.3 0.0
19/05:30pm 20.3 16.5 11.1 55 5.1 SSW 22 32 12 17 1014.0 - 0.0
19/05:00pm 20.5 16.5 11.7 57 4.9 S 24 33 13 18 1013.8 - 0.0
19/04:30pm 21.1 16.7 11.8 55 5.2 S 26 33 14 18 1013.5 - 0.0
19/04:00pm 21.7 17.0 12.1 54 5.4 SSW 28 41 15 22 1013.3 - 0.0
19/03:30pm 22.3 18.4 12.2 52 5.7 SSW 24 35 13 19 1012.9 - 0.0
19/03:00pm 22.8 18.8 12.9 53 5.7 SSW 26 33 14 18 1012.7 1012.6 0.0
19/02:30pm 21.8 18.0 12.3 54 5.4 WSW 24 33 13 18 1012.8 - 0.0
19/02:00pm 24.4 19.6 11.8 45 7.2 SW 28 35 15 19 1012.7 - 0.0
19/01:30pm 22.9 18.4 11.3 48 6.5 W 26 33 14 18 1012.9 - 0.0
19/01:00pm 23.0 18.0 11.0 46 6.7 WSW 28 37 15 20 1012.8 - 0.0
19/12:30pm 23.4 18.7 10.6 44 7.1 WSW 26 35 14 19 1012.7 - 0.0
19/12:00pm 23.5 18.9 9.6 41 7.6 WSW 24 33 13 18 1013.0 1012.9 0.0
19/11:30am 23.3 19.0 12.0 49 6.4 WSW 26 33 14 18 1013.2 - 0.0
19/11:00am 23.5 19.8 11.6 47 6.7 W 22 32 12 17 1013.5 - 0.0
19/10:30am 23.4 19.6 11.0 45 6.9 WSW 22 32 12 17 1013.6 - 0.0
19/10:16am 23.3 20.0 9.7 42 7.4 WNW 17 24 9 13 1013.6 - 0.0
19/10:00am 23.0 20.7 10.5 45 6.9 WNW 13 20 7 11 1013.6 - 0.0
19/09:55am 22.7 20.0 10.5 46 6.7 WNW 15 20 8 11 1013.6 - 0.0
19/09:30am 21.2 18.7 12.3 57 5.0 WSW 17 20 9 11 1013.5 - 0.0
19/09:00am 21.0 20.5 12.1 56 5.0 SE 6 9 3 5 1013.5 1013.4 0.0
19/08:30am 20.7 19.3 13.4 63 4.2 NNE 13 17 7 9 1013.4 - 0.0
19/08:00am 19.3 17.2 13.6 69 3.3 NNE 17 20 9 11 1013.3 - 0.0
19/07:30am 17.2 14.5 12.9 76 2.4 N 19 22 10 12 1013.0 - 0.0
19/07:00am 15.2 12.2 12.5 84 1.5 NNE 20 26 11 14 1012.9 - 0.0
19/06:30am 14.5 12.0 12.3 87 1.2 NNE 17 24 9 13 1012.9 - 0.0
19/06:00am 13.2 10.9 11.7 91 0.8 NNE 15 19 8 10 1012.6 1012.5 0.0
19/05:30am 12.9 10.5 11.4 91 0.8 NNE 15 20 8 11 1012.5 - 0.0
19/05:00am 13.0 11.1 11.7 92 0.7 NNE 13 17 7 9 1012.3 - 0.0
19/04:30am 13.1 11.1 11.6 91 0.8 NNE 13 15 7 8 1012.2 - 0.0
19/04:00am 12.4 9.9 11.1 92 0.7 NNE 15 20 8 11 1012.0 - 0.0
19/03:30am 12.4 9.6 11.2 92 0.6 NNE 17 19 9 10 1012.0 - 0.0
19/03:00am 12.4 10.3 11.1 92 0.7 NNE 13 20 7 11 1012.0 1011.9 0.0
19/02:30am 12.6 10.2 11.3 92 0.7 NNE 15 19 8 10 1011.9 - 0.0
19/02:00am 12.9 10.5 11.5 91 0.7 N 15 17 8 9 1011.9 - 0.0
19/01:30am 13.4 11.5 11.9 91 0.8 N 13 13 7 7 1011.9 - 0.0
19/01:00am 13.3 11.8 11.9 91 0.8 NNE 11 15 6 8 1012.0 - 0.0
19/12:30am 13.6 12.1 11.9 89 0.9 NNE 11 13 6 7 1012.3 - 0.0
19/12:00am 14.1 12.7 12.3 89 1.0 NNE 11 15 6 8 1012.4 1012.3 0.0
 
Date/Time
WST
Temp
°C
App
Temp
°C
Dew
Point
Rel
Hum
%
Delta-T
°C
Wind Press
QNH
hPa
Press
MSL
hPa
Rain
since 9 am
mm
Dir
 
Spd
km/h
Gust
km/h
Spd
kts
Gust
kts
18/11:30pm 13.2 11.6 11.5 89 0.9 NNE 11 15 6 8 1012.5 - 0.0
18/11:00pm 13.1 12.1 11.0 87 1.1 N 7 9 4 5 1012.5 - 0.0
18/10:30pm 13.5 13.5 11.3 86 1.2 ESE 2 6 1 3 1012.7 - 0.0
18/10:00pm 14.2 13.3 11.4 83 1.5 NE 7 9 4 5 1012.8 - 0.0
18/09:30pm 15.6 15.1 12.2 80 1.9 N 6 6 3 3 1012.9 - 0.0
18/09:00pm 17.2 17.5 13.3 78 2.2 N 4 6 2 3 1013.0 1012.9 0.0
18/08:30pm 18.0 17.1 13.6 75 2.5 NE 11 11 6 6 1013.0 - 0.0
18/08:00pm 18.0 18.7 13.4 74 2.6 ESE 2 7 1 4 1012.9 - 0.0
18/07:30pm 18.6 17.9 13.3 71 3.0 S 9 11 5 6 1012.7 - 0.0
18/07:00pm 18.8 17.5 13.6 72 3.0 SW 13 13 7 7 1012.8 - 0.0
18/06:30pm 19.1 18.4 13.3 69 3.3 WSW 9 11 5 6 1012.2 - 0.0
18/06:00pm 19.9 18.1 13.2 65 3.8 W 15 17 8 9 1012.1 1012.0 0.0
18/05:30pm 20.1 18.5 12.9 63 4.1 WSW 13 19 7 10 1012.3 - 0.0
18/05:00pm 20.1 17.5 12.1 60 4.5 W 17 22 9 12 1011.8 - 0.0
18/04:30pm 20.7 18.2 12.2 58 4.8 SW 17 20 9 11 1011.7 - 0.0
18/04:00pm 22.0 18.4 11.9 52 5.7 W 22 33 12 18 1011.8 - 0.0
18/03:30pm 22.5 18.8 11.4 49 6.2 W 22 30 12 16 1011.8 - 0.0
18/03:00pm 22.7 19.7 12.4 52 5.9 WSW 20 26 11 14 1011.7 1011.6 0.0
18/02:30pm 23.5 19.9 11.8 47 6.6 WSW 22 30 12 16 1011.7 - 0.0
18/02:00pm 22.9 19.8 11.7 49 6.3 WSW 19 26 10 14 1011.9 - 0.0
18/01:30pm 22.5 19.0 12.3 52 5.8 WSW 22 33 12 18 1012.0 - 0.0
18/01:00pm 22.3 19.2 12.2 52 5.7 WSW 20 30 11 16 1011.9 - 0.0
18/12:30pm 23.0 20.1 12.9 53 5.8 WSW 20 32 11 17 1011.9 - 0.0
18/12:00pm 22.6 20.2 12.8 54 5.6 WSW 17 24 9 13 1012.1 1012.0 0.0
18/11:30am 22.1 19.7 12.5 54 5.5 SW 17 24 9 13 1012.3 - 0.0
18/11:00am 21.8 19.8 12.7 56 5.2 SW 15 24 8 13 1012.5 - 0.0
18/10:30am 20.4 19.1 13.8 66 3.8 W 13 20 7 11 1012.6 - 0.0
18/10:00am 20.3 16.6 13.9 66 3.7 W 26 32 14 17 1012.4 - 0.0
18/09:30am 22.0 19.9 12.4 54 5.4 W 15 24 8 13 1012.2 - 0.0
18/09:00am 21.2 20.0 12.8 58 4.8 W 11 17 6 9 1012.2 1012.1 0.0
18/08:30am 20.8 19.4 13.3 62 4.3 SSW 13 17 7 9 1011.8 - 0.0
18/08:00am 20.2 18.1 13.5 65 3.8 SW 17 24 9 13 1011.6 - 0.0
18/07:30am 20.4 18.3 13.7 65 3.9 SSW 17 20 9 11 1011.4 - 0.0
18/07:00am 20.1 18.6 14.3 69 3.4 SSW 15 17 8 9 1011.2 - 0.0
18/06:30am 18.6 18.6 15.1 80 2.0 SSW 9 11 5 6 1011.0 - 0.0
18/06:00am 18.3 17.5 15.0 81 1.9 SW 13 15 7 8 1010.8 1010.7 0.0
18/05:30am 17.7 17.2 15.0 84 1.6 SW 11 13 6 7 1010.6 - 0.0
18/05:00am 17.7 17.3 15.2 85 1.5 SW 11 13 6 7 1010.6 - 0.0
18/04:30am 17.3 16.4 14.8 85 1.4 SW 13 17 7 9 1010.4 - 0.0
18/04:00am 17.9 17.1 15.0 83 1.7 SW 13 15 7 8 1010.3 - 0.0
18/03:30am 18.3 17.5 15.0 81 1.9 SW 13 17 7 9 1010.3 - 0.0
18/03:00am 18.9 17.7 15.1 78 2.2 SW 15 19 8 10 1010.4 1010.3 0.0
18/02:30am 18.5 18.1 15.3 81 1.9 SW 11 15 6 8 1010.3 - 0.0
18/02:00am 18.3 17.9 15.1 81 1.9 SW 11 15 6 8 1010.3 - 0.0
18/01:30am 18.8 18.4 15.3 80 2.1 SSW 11 17 6 9 1010.3 - 0.0
18/01:00am 19.1 18.0 15.2 78 2.3 SSW 15 20 8 11 1010.6 - 0.0
18/12:30am 19.1 18.4 15.4 79 2.2 SSW 13 20 7 11 1010.9 - 0.0
18/12:00am 18.9 18.3 15.6 81 2.0 SSW 13 17 7 9 1011.1 1011.0 0.0
 
Date/Time
WST
Temp
°C
App
Temp
°C
Dew
Point
Rel
Hum
%
Delta-T
°C
Wind Press
QNH
hPa
Press
MSL
hPa
Rain
since 9 am
mm
Dir
 
Spd
km/h
Gust
km/h
Spd
kts
Gust
kts
17/11:30pm 19.1 18.5 15.6 80 2.1 SSW 13 19 7 10 1011.2 - 0.0
17/11:00pm 19.1 18.5 15.7 80 2.0 SSW 13 19 7 10 1011.4 - 0.0
17/10:30pm 19.1 18.2 15.8 81 2.0 SSW 15 20 8 11 1011.3 - 0.0
17/10:00pm 19.3 17.6 15.8 80 2.1 S 19 24 10 13 1011.1 - 0.0
17/09:30pm 19.1 18.0 15.4 79 2.2 S 15 22 8 12 1011.1 - 0.0
17/09:00pm 19.0 18.0 15.7 81 2.0 S 15 20 8 11 1010.8 1010.7 0.0
17/08:30pm 19.5 17.8 15.8 79 2.2 S 19 32 10 17 1011.0 - 0.0
17/08:00pm 19.6 16.9 15.6 78 2.4 S 24 32 13 17 1010.4 - 0.0
17/07:30pm 19.6 16.8 15.4 77 2.5 S 24 32 13 17 1010.1 - 0.0
17/07:00pm 19.6 16.8 15.4 77 2.5 S 24 33 13 18 1010.1 - 0.0
17/06:30pm 19.9 16.4 15.4 75 2.7 S 28 39 15 21 1009.5 - 0.0
17/06:00pm 20.3 16.3 15.1 72 3.1 S 30 39 16 21 1009.8 1009.7 0.0
17/05:30pm 20.6 16.7 15.4 72 3.1 S 30 41 16 22 1009.7 - 0.0
17/05:00pm 21.6 18.0 15.3 67 3.7 S 28 39 15 21 1009.5 - 0.0
17/04:30pm 22.0 17.9 14.9 64 4.2 S 30 41 16 22 1009.3 - 0.0
17/04:00pm 22.8 18.2 14.5 59 4.9 S 32 41 17 22 1009.5 - 0.0

Other Formats:

Comma delimited format used in spreadsheet applications
http://www.bom.gov.au/fwo/IDW60801/IDW60801.94403.axf

JavaScript Object Notation format (JSON) in row-major order
http://www.bom.gov.au/fwo/IDW60801/IDW60801.94403.json